createdAt,value
2023-04-09T00:00:31.036Z,30.33
2023-04-09T00:02:58.823Z,31.13
2023-04-09T00:05:26.672Z,31.75
2023-04-09T00:07:54.511Z,30.75
2023-04-09T00:10:22.288Z,31.15
2023-04-09T00:12:50.075Z,31.70
2023-04-09T00:15:30.014Z,31.10
2023-04-09T00:17:58.810Z,32.40
2023-04-09T00:20:26.670Z,32.63
2023-04-09T00:22:55.580Z,32.15
2023-04-09T00:25:23.330Z,31.58
2023-04-09T00:27:51.546Z,31.48
2023-04-09T00:30:20.742Z,31.58
2023-04-09T00:32:48.507Z,33.58
2023-04-09T00:35:17.544Z,32.17
2023-04-09T00:37:45.413Z,31.38
2023-04-09T00:40:13.223Z,31.08
2023-04-09T00:42:41.944Z,33.38
2023-04-09T00:45:10.057Z,31.55
2023-04-09T00:47:39.538Z,30.50
2023-04-09T00:50:07.747Z,31.70
2023-04-09T00:52:36.218Z,31.77
2023-04-09T00:55:05.706Z,33.75
2023-04-09T00:57:33.542Z,32.70
2023-04-09T01:00:01.368Z,32.47
2023-04-09T01:02:31.191Z,34.30
2023-04-09T01:05:01.037Z,33.53
2023-04-09T01:07:33.117Z,33.75
2023-04-09T01:10:04.067Z,31.80
2023-04-09T01:12:34.064Z,31.95
2023-04-09T01:15:06.591Z,32.20
2023-04-09T01:17:35.902Z,33.03
2023-04-09T01:20:09.323Z,31.17
2023-04-09T01:22:43.326Z,29.85
2023-04-09T01:25:23.028Z,27.98
2023-04-09T01:27:56.248Z,29.25
2023-04-09T01:30:26.899Z,27.45
2023-04-09T01:32:55.774Z,26.67
2023-04-09T01:35:24.155Z,25.00
2023-04-09T01:37:53.605Z,24.15
2023-04-09T01:40:21.445Z,24.13
2023-04-09T01:42:49.830Z,24.08
2023-04-09T01:45:17.811Z,23.65
2023-04-09T01:47:47.025Z,22.27
2023-04-09T01:50:14.832Z,23.02
2023-04-09T01:52:42.912Z,22.92
2023-04-09T01:55:11.149Z,23.50
2023-04-09T01:57:38.929Z,21.63
2023-04-09T02:00:07.835Z,22.23
2023-04-09T02:02:38.044Z,23.95
2023-04-09T02:05:09.380Z,23.80
2023-04-09T02:07:39.263Z,21.70
2023-04-09T02:10:07.525Z,23.35
2023-04-09T02:12:37.790Z,23.75
2023-04-09T02:15:07.299Z,23.70
2023-04-09T02:17:35.183Z,22.85
2023-04-09T02:20:03.030Z,24.25
2023-04-09T02:22:32.140Z,24.33
2023-04-09T02:25:00.160Z,23.83
2023-04-09T02:27:27.981Z,24.40
2023-04-09T02:29:56.008Z,24.95
2023-04-09T02:32:24.127Z,25.00
2023-04-09T02:34:51.930Z,23.50
2023-04-09T02:37:19.943Z,24.23
2023-04-09T02:39:49.019Z,24.58
2023-04-09T02:42:16.792Z,23.50
2023-04-09T02:44:45.523Z,25.17
2023-04-09T02:47:13.289Z,25.58
2023-04-09T02:49:41.056Z,24.63
2023-04-09T02:52:10.760Z,23.50
2023-04-09T02:54:38.508Z,22.95
2023-04-09T02:57:07.834Z,25.48
2023-04-09T02:59:35.893Z,26.33
2023-04-09T03:02:03.803Z,26.23
2023-04-09T03:04:31.740Z,25.02
2023-04-09T03:06:59.505Z,26.33
2023-04-09T03:09:27.534Z,25.83
2023-04-09T03:11:56.375Z,25.77
2023-04-09T03:14:25.793Z,28.67
2023-04-09T03:16:53.573Z,25.52
2023-04-09T03:19:21.388Z,26.42
2023-04-09T03:21:50.917Z,25.58
2023-04-09T03:24:18.706Z,26.13
2023-04-09T03:26:46.664Z,27.13
2023-04-09T03:29:14.491Z,25.90
2023-04-09T03:31:43.616Z,27.05
2023-04-09T03:34:11.419Z,24.27
2023-04-09T03:36:39.326Z,26.73
2023-04-09T03:39:07.250Z,27.13
2023-04-09T03:41:35.400Z,25.20
2023-04-09T03:44:03.158Z,26.35
2023-04-09T03:46:31.217Z,26.65
2023-04-09T03:49:00.560Z,28.23
2023-04-09T03:51:28.348Z,27.83
2023-04-09T03:53:56.219Z,28.20
2023-04-09T03:56:24.035Z,24.88
2023-04-09T03:58:52.187Z,26.73
2023-04-09T04:01:20.329Z,25.67
2023-04-09T04:03:48.831Z,26.60
2023-04-09T04:06:18.090Z,27.90
2023-04-09T04:08:45.881Z,28.08
2023-04-09T04:11:13.704Z,28.73
2023-04-09T04:13:41.710Z,26.35
2023-04-09T04:16:10.076Z,27.63
2023-04-09T04:18:38.176Z,25.95
2023-04-09T04:21:06.199Z,27.63
2023-04-09T04:23:36.145Z,28.42
2023-04-09T04:26:09.906Z,29.15
2023-04-09T04:28:38.070Z,27.77
2023-04-09T04:31:08.955Z,27.77
2023-04-09T04:33:37.003Z,29.67
2023-04-09T04:36:06.406Z,27.80
2023-04-09T04:38:35.746Z,27.08
2023-04-09T04:41:04.309Z,26.90
2023-04-09T04:43:32.611Z,29.10
2023-04-09T04:46:00.847Z,28.55
2023-04-09T04:48:29.419Z,29.05
2023-04-09T04:50:57.545Z,29.92
2023-04-09T04:53:25.421Z,28.73
2023-04-09T04:55:54.835Z,30.80
2023-04-09T04:58:22.794Z,28.13
2023-04-09T05:00:52.774Z,28.15
2023-04-09T05:03:20.619Z,28.58
2023-04-09T05:05:48.414Z,27.48
2023-04-09T05:08:16.465Z,30.13
2023-04-09T05:10:46.763Z,28.23
2023-04-09T05:13:16.125Z,30.50
2023-04-09T05:15:43.927Z,29.80
2023-04-09T05:18:12.831Z,28.50
2023-04-09T05:20:40.597Z,28.65
2023-04-09T05:23:10.221Z,27.88
2023-04-09T05:25:38.256Z,27.70
2023-04-09T05:28:06.342Z,27.88
2023-04-09T05:30:35.658Z,27.88
2023-04-09T05:33:03.470Z,30.92
2023-04-09T05:35:31.349Z,28.98
2023-04-09T05:37:59.214Z,29.90
2023-04-09T05:40:26.996Z,29.40
2023-04-09T05:42:54.981Z,29.45
2023-04-09T05:45:22.759Z,28.73
2023-04-09T05:47:52.055Z,30.20
2023-04-09T05:50:19.830Z,28.48
2023-04-09T05:52:47.626Z,28.92
2023-04-09T05:55:15.452Z,29.60
2023-04-09T05:57:44.992Z,29.00
2023-04-09T06:00:13.482Z,28.60
2023-04-09T06:02:41.292Z,31.05
2023-04-09T06:05:11.089Z,29.35
2023-04-09T06:07:39.071Z,31.15
2023-04-09T06:10:07.554Z,30.38
2023-04-09T06:12:35.522Z,29.80
2023-04-09T06:15:03.967Z,30.63
2023-04-09T06:17:31.859Z,32.85
2023-04-09T06:19:59.804Z,29.90
2023-04-09T06:22:29.323Z,30.38
2023-04-09T06:24:57.192Z,31.33
2023-04-09T06:27:25.164Z,31.40
2023-04-09T06:29:53.129Z,32.45
2023-04-09T06:32:21.095Z,31.45
2023-04-09T06:34:49.190Z,32.90
2023-04-09T06:37:16.960Z,31.77
2023-04-09T06:39:58.226Z,31.10
2023-04-09T06:42:28.988Z,31.58
2023-04-09T06:44:56.714Z,31.83
2023-04-09T06:47:24.626Z,31.17
2023-04-09T06:49:52.784Z,31.75
2023-04-09T06:52:20.531Z,32.70
2023-04-09T06:54:49.831Z,32.17
2023-04-09T06:57:17.631Z,31.15
2023-04-09T06:59:45.712Z,31.40
2023-04-09T07:02:13.553Z,32.05
2023-04-09T07:04:42.514Z,32.70
2023-04-09T07:07:10.610Z,33.03
2023-04-09T07:09:38.385Z,32.88
2023-04-09T07:12:07.536Z,32.97
2023-04-09T07:14:35.440Z,33.28
2023-04-09T07:17:03.489Z,32.75
2023-04-09T07:19:31.255Z,32.15
2023-04-09T07:21:59.026Z,32.20
2023-04-09T07:24:26.817Z,34.03
2023-04-09T07:26:54.646Z,34.55
2023-04-09T07:29:23.761Z,30.75
2023-04-09T07:31:51.520Z,35.72
2023-04-09T07:34:19.542Z,41.65
2023-04-09T07:36:47.530Z,34.95
2023-04-09T07:39:15.911Z,32.10
2023-04-09T07:41:43.866Z,31.75
2023-04-09T07:44:12.210Z,32.78
2023-04-09T07:46:42.481Z,31.75
2023-04-09T07:49:10.632Z,31.50
2023-04-09T07:51:38.490Z,31.52
2023-04-09T07:54:06.449Z,30.65
2023-04-09T07:56:34.387Z,32.10
2023-04-09T07:59:02.373Z,48.03
2023-04-09T08:01:30.201Z,32.92
2023-04-09T08:03:59.502Z,38.22
2023-04-09T08:06:27.604Z,33.30
2023-04-09T08:08:55.448Z,28.38
2023-04-09T08:11:25.301Z,29.08
2023-04-09T08:13:53.235Z,36.22
2023-04-09T08:16:21.454Z,32.35
2023-04-09T08:18:49.348Z,30.35
2023-04-09T08:21:18.844Z,29.55
2023-04-09T08:23:46.676Z,29.45
2023-04-09T08:26:14.483Z,31.38
2023-04-09T08:28:42.896Z,34.03
2023-04-09T08:31:10.921Z,26.63
2023-04-09T08:33:38.971Z,28.55
2023-04-09T08:36:09.383Z,27.17
2023-04-09T08:38:38.816Z,28.85
2023-04-09T08:41:06.815Z,27.80
2023-04-09T08:43:52.691Z,25.55
2023-04-09T08:46:22.746Z,27.60
2023-04-09T08:48:51.439Z,28.27
2023-04-09T08:51:20.269Z,25.00
2023-04-09T08:53:52.893Z,26.98
2023-04-09T08:56:21.295Z,24.25
2023-04-09T08:58:49.254Z,19.10
2023-04-09T09:01:21.114Z,18.65
2023-04-09T09:03:59.048Z,20.83
2023-04-09T09:06:28.813Z,21.38
2023-04-09T09:09:08.142Z,22.58
2023-04-09T09:11:37.009Z,23.48
2023-04-09T09:14:05.741Z,22.90
2023-04-09T09:16:34.814Z,24.90
2023-04-09T09:19:03.370Z,25.52
2023-04-09T09:21:31.228Z,23.67
2023-04-09T09:23:59.311Z,26.98
2023-04-09T09:26:29.582Z,24.60
2023-04-09T09:28:59.064Z,27.30
2023-04-09T09:31:27.510Z,27.98
2023-04-09T09:33:55.463Z,29.52
2023-04-09T09:36:43.013Z,23.83
2023-04-09T09:39:12.213Z,23.95
2023-04-09T09:41:41.723Z,25.00
2023-04-09T09:44:10.351Z,27.48
2023-04-09T09:46:39.586Z,26.05
2023-04-09T09:49:07.479Z,23.85
2023-04-09T09:51:37.828Z,24.48
2023-04-09T09:54:08.013Z,26.30
2023-04-09T09:56:37.162Z,23.20
2023-04-09T09:59:13.268Z,22.08
2023-04-09T10:01:41.466Z,21.85
2023-04-09T10:04:13.468Z,24.25
2023-04-09T10:06:43.288Z,21.50
2023-04-09T10:09:11.354Z,23.08
2023-04-09T10:11:42.765Z,21.92
2023-04-09T10:14:12.035Z,24.10
2023-04-09T10:16:40.129Z,24.20
2023-04-09T10:19:13.126Z,22.48
2023-04-09T10:21:43.360Z,23.52
2023-04-09T10:24:11.427Z,27.73
2023-04-09T10:26:41.147Z,22.95
2023-04-09T10:29:09.965Z,21.52
2023-04-09T10:31:52.446Z,25.17
2023-04-09T10:34:22.048Z,23.87
2023-04-09T10:36:54.257Z,24.13
2023-04-09T10:39:22.106Z,26.30
2023-04-09T10:41:51.128Z,22.00
2023-04-09T10:44:22.539Z,24.55
2023-04-09T10:46:53.776Z,24.55
2023-04-09T10:49:22.281Z,24.50
2023-04-09T10:51:52.358Z,23.05
2023-04-09T10:54:49.210Z,23.92
2023-04-09T10:57:22.428Z,22.33
2023-04-09T10:59:51.343Z,23.85
2023-04-09T11:02:38.329Z,22.13
2023-04-09T11:05:07.874Z,23.52
2023-04-09T11:07:38.036Z,24.92
2023-04-09T11:10:06.329Z,22.60
2023-04-09T11:12:34.393Z,21.92
2023-04-09T11:15:02.128Z,21.10
2023-04-09T11:17:32.503Z,23.58
2023-04-09T11:20:00.333Z,22.05
2023-04-09T11:22:29.706Z,21.13
2023-04-09T11:24:57.593Z,20.27
2023-04-09T11:27:25.542Z,21.00
2023-04-09T11:29:56.370Z,20.38
2023-04-09T11:32:25.734Z,19.88
2023-04-09T11:34:54.815Z,20.88
2023-04-09T11:37:22.619Z,20.73
2023-04-09T11:39:55.084Z,21.23
2023-04-09T11:42:25.791Z,22.02
2023-04-09T11:44:53.613Z,20.98
2023-04-09T11:47:22.163Z,20.52
2023-04-09T11:49:50.335Z,21.17
2023-04-09T11:52:19.885Z,20.73
2023-04-09T11:54:49.798Z,20.10
2023-04-09T11:57:18.108Z,21.35
2023-04-09T11:59:46.313Z,19.98
2023-04-09T12:02:18.445Z,22.85
2023-04-09T12:04:50.680Z,19.52
2023-04-09T12:07:19.906Z,21.50
2023-04-09T12:09:48.958Z,20.65
2023-04-09T12:12:19.685Z,20.80
2023-04-09T12:14:47.776Z,20.50
2023-04-09T12:17:15.640Z,20.40
2023-04-09T12:19:43.424Z,19.98
2023-04-09T12:22:11.442Z,19.73
2023-04-09T12:24:40.547Z,18.58
2023-04-09T12:27:08.413Z,20.83
2023-04-09T12:29:36.312Z,20.48
2023-04-09T12:32:04.177Z,20.02
2023-04-09T12:34:32.039Z,19.23
2023-04-09T12:37:00.130Z,18.23
2023-04-09T12:39:28.028Z,19.70
2023-04-09T12:41:57.720Z,18.98
2023-04-09T12:44:26.468Z,21.55
2023-04-09T12:46:55.225Z,18.77
2023-04-09T12:49:23.187Z,19.40
2023-04-09T12:51:51.254Z,19.33
2023-04-09T12:54:19.174Z,19.48
2023-04-09T12:56:47.054Z,19.08
2023-04-09T12:59:16.171Z,19.80
2023-04-09T13:01:44.229Z,19.08
2023-04-09T13:04:12.252Z,18.77
2023-04-09T13:06:40.399Z,19.17
2023-04-09T13:09:08.244Z,19.20
2023-04-09T13:11:36.454Z,18.50
2023-04-09T13:14:04.192Z,19.00
2023-04-09T13:16:34.230Z,20.08
2023-04-09T13:19:02.040Z,19.33
2023-04-09T13:21:29.901Z,18.08
2023-04-09T13:23:57.744Z,18.83
2023-04-09T13:26:25.603Z,19.33
2023-04-09T13:28:53.864Z,17.02
2023-04-09T13:31:22.037Z,18.65
2023-04-09T13:33:51.166Z,17.60
2023-04-09T13:36:18.959Z,19.15
2023-04-09T13:38:46.775Z,18.60
2023-04-09T13:41:15.287Z,16.65
2023-04-09T13:43:45.211Z,17.20
2023-04-09T13:46:13.220Z,17.02
2023-04-09T13:48:41.142Z,17.08
2023-04-09T13:51:10.495Z,18.10
2023-04-09T13:53:38.288Z,18.85
2023-04-09T13:56:08.853Z,18.58
2023-04-09T13:58:36.625Z,17.67
2023-04-09T14:01:04.687Z,19.10
2023-04-09T14:03:38.423Z,17.83
2023-04-09T14:06:09.468Z,16.95
2023-04-09T14:08:38.616Z,16.77
2023-04-09T14:11:07.109Z,17.58
2023-04-09T14:13:35.634Z,18.15
2023-04-09T14:16:03.759Z,16.63
2023-04-09T14:18:31.575Z,17.30
2023-04-09T14:20:59.333Z,15.30
2023-04-09T14:23:27.442Z,15.75
2023-04-09T14:25:56.677Z,15.38
2023-04-09T14:28:25.067Z,15.73
2023-04-09T14:30:53.139Z,14.20
2023-04-09T14:33:21.037Z,14.65
2023-04-09T14:35:50.464Z,14.30
2023-04-09T14:38:19.118Z,13.88
2023-04-09T14:40:46.904Z,12.85
2023-04-09T14:43:15.985Z,12.77
2023-04-09T14:45:49.635Z,12.00
2023-04-09T14:48:17.766Z,12.70
2023-04-09T14:50:45.932Z,11.77
2023-04-09T14:53:14.420Z,12.38
2023-04-09T14:55:42.253Z,11.57
2023-04-09T14:58:10.152Z,13.25
2023-04-09T15:00:39.766Z,11.50
2023-04-09T15:03:07.806Z,12.68
2023-04-09T15:05:35.821Z,12.23
2023-04-09T15:08:03.559Z,12.05
2023-04-09T15:10:31.412Z,11.93
2023-04-09T15:12:59.326Z,10.80
2023-04-09T15:15:27.518Z,11.23
2023-04-09T15:17:56.659Z,11.18
2023-04-09T15:20:24.586Z,11.07
2023-04-09T15:22:52.397Z,10.75
2023-04-09T15:25:20.505Z,9.07
2023-04-09T15:27:48.331Z,10.32
2023-04-09T15:30:16.385Z,10.82
2023-04-09T15:32:44.285Z,10.73
2023-04-09T15:35:14.607Z,10.35
2023-04-09T15:37:42.443Z,9.70
2023-04-09T15:40:10.806Z,9.77
2023-04-09T15:42:38.805Z,9.07
2023-04-09T15:45:07.373Z,9.23
2023-04-09T15:47:37.792Z,10.05
2023-04-09T15:50:06.081Z,10.80
2023-04-09T15:52:35.594Z,10.43
2023-04-09T15:55:03.487Z,10.40
2023-04-09T15:57:31.365Z,10.05
2023-04-09T15:59:59.640Z,9.25
2023-04-09T16:02:27.901Z,9.68
2023-04-09T16:04:55.856Z,10.60
2023-04-09T16:07:23.738Z,10.05
2023-04-09T16:09:52.940Z,9.15
2023-04-09T16:12:20.901Z,9.25
2023-04-09T16:14:48.877Z,9.38
2023-04-09T16:17:16.774Z,9.48
2023-04-09T16:19:44.664Z,10.27
2023-04-09T16:22:12.550Z,9.93
2023-04-09T16:24:40.471Z,9.55
2023-04-09T16:27:09.683Z,8.68
2023-04-09T16:29:37.470Z,9.77
2023-04-09T16:32:05.942Z,12.60
2023-04-09T16:34:33.832Z,11.85
2023-04-09T16:37:01.675Z,13.43
2023-04-09T16:39:29.593Z,13.48
2023-04-09T16:41:58.289Z,13.57
2023-04-09T16:44:27.700Z,14.73
2023-04-09T16:46:56.542Z,13.75
2023-04-09T16:49:24.693Z,14.35
2023-04-09T16:51:53.224Z,12.40
2023-04-09T16:54:21.500Z,13.57
2023-04-09T16:56:49.622Z,13.43
2023-04-09T16:59:20.984Z,13.38
2023-04-09T17:01:51.619Z,11.75
2023-04-09T17:04:20.013Z,12.68
2023-04-09T17:06:48.200Z,12.93
2023-04-09T17:09:16.326Z,13.35
2023-04-09T17:11:44.639Z,11.75
2023-04-09T17:14:12.709Z,12.30
2023-04-09T17:16:40.571Z,12.05
2023-04-09T17:19:09.929Z,12.65
2023-04-09T17:21:38.798Z,13.55
2023-04-09T17:24:07.143Z,14.70
2023-04-09T17:26:35.088Z,15.63
2023-04-09T17:29:02.901Z,14.45
2023-04-09T17:31:31.018Z,13.23
2023-04-09T17:33:58.813Z,14.20
2023-04-09T17:36:28.468Z,13.50
2023-04-09T17:38:57.442Z,13.65
2023-04-09T17:41:25.236Z,13.48
2023-04-09T17:43:53.084Z,14.57
2023-04-09T17:46:20.933Z,14.02
2023-04-09T17:48:49.000Z,13.40
2023-04-09T17:51:18.469Z,13.98
2023-04-09T17:53:48.252Z,14.13
2023-04-09T17:56:16.473Z,14.40
2023-04-09T17:58:44.415Z,13.23
2023-04-09T18:01:13.470Z,15.60
2023-04-09T18:03:42.290Z,14.57
2023-04-09T18:06:10.600Z,14.95
2023-04-09T18:08:38.533Z,13.55
2023-04-09T18:11:12.330Z,13.10
2023-04-09T18:13:43.014Z,13.45
2023-04-09T18:16:11.594Z,13.10
2023-04-09T18:18:39.388Z,12.82
2023-04-09T18:21:07.250Z,12.88
2023-04-09T18:23:35.513Z,12.50
2023-04-09T18:26:03.548Z,12.13
2023-04-09T18:28:32.704Z,14.30
2023-04-09T18:31:00.541Z,13.00
2023-04-09T18:33:28.514Z,14.07
2023-04-09T18:35:56.500Z,12.82
2023-04-09T18:38:24.381Z,13.75
2023-04-09T18:40:52.223Z,11.63
2023-04-09T18:43:20.308Z,11.68
2023-04-09T18:45:49.599Z,12.07
2023-04-09T18:48:21.062Z,12.52
2023-04-09T18:50:48.778Z,12.77
2023-04-09T18:53:16.580Z,12.02
2023-04-09T18:55:44.316Z,13.57
2023-04-09T18:58:14.941Z,14.52
2023-04-09T19:00:43.550Z,14.23
2023-04-09T19:03:13.240Z,14.05
2023-04-09T19:05:41.134Z,14.93
2023-04-09T19:08:09.701Z,14.57
2023-04-09T19:10:38.359Z,13.88
2023-04-09T19:13:06.188Z,14.00
2023-04-09T19:15:34.161Z,14.40
2023-04-09T19:18:02.114Z,14.20
2023-04-09T19:20:31.284Z,13.57
2023-04-09T19:22:59.437Z,14.63
2023-04-09T19:25:27.204Z,14.98
2023-04-09T19:27:55.429Z,14.38
2023-04-09T19:30:23.479Z,15.00
2023-04-09T19:32:51.324Z,15.38
2023-04-09T19:35:19.125Z,15.15
2023-04-09T19:37:54.066Z,15.30
2023-04-09T19:40:21.838Z,13.38
2023-04-09T19:42:49.882Z,15.02
2023-04-09T19:45:17.670Z,14.95
2023-04-09T19:47:45.828Z,15.68
2023-04-09T19:50:13.910Z,14.57
2023-04-09T19:52:41.963Z,14.77
2023-04-09T19:55:11.547Z,15.23
2023-04-09T19:57:43.278Z,15.00
2023-04-09T20:00:11.970Z,16.10
2023-04-09T20:02:41.553Z,15.63
2023-04-09T20:05:10.222Z,15.45
2023-04-09T20:07:38.506Z,15.90
2023-04-09T20:10:06.846Z,16.45
2023-04-09T20:12:36.354Z,16.13
2023-04-09T20:15:04.230Z,15.75
2023-04-09T20:17:32.142Z,16.00
2023-04-09T20:20:00.008Z,15.90
2023-04-09T20:22:28.962Z,16.25
2023-04-09T20:24:56.764Z,15.65
2023-04-09T20:27:24.557Z,15.73
2023-04-09T20:29:54.101Z,15.40
2023-04-09T20:32:22.618Z,15.05
2023-04-09T20:34:50.936Z,13.95
2023-04-09T20:37:18.839Z,14.95
2023-04-09T20:39:47.910Z,14.57
2023-04-09T20:42:16.037Z,14.30
2023-04-09T20:44:45.083Z,14.10
2023-04-09T20:47:15.946Z,15.52
2023-04-09T20:49:44.066Z,14.27
2023-04-09T20:52:12.049Z,14.18
2023-04-09T20:54:40.354Z,14.73
2023-04-09T20:57:08.348Z,14.13
2023-04-09T20:59:36.108Z,12.70
2023-04-09T21:02:04.337Z,15.18
2023-04-09T21:04:33.587Z,14.55
2023-04-09T21:07:01.397Z,15.90
2023-04-09T21:09:29.752Z,14.85
2023-04-09T21:11:57.470Z,14.88
2023-04-09T21:14:25.531Z,14.48
2023-04-09T21:16:53.428Z,14.98
2023-04-09T21:19:21.285Z,14.43
2023-04-09T21:21:50.616Z,15.48
2023-04-09T21:24:18.866Z,15.05
2023-04-09T21:26:51.797Z,16.48
2023-04-09T21:29:20.301Z,17.05
2023-04-09T21:31:48.457Z,17.40
2023-04-09T21:34:16.728Z,17.63
2023-04-09T21:36:45.268Z,16.48
2023-04-09T21:39:14.666Z,17.45
2023-04-09T21:41:42.409Z,14.52
2023-04-09T21:44:10.162Z,17.58
2023-04-09T21:46:40.873Z,16.02
2023-04-09T21:49:08.975Z,16.42
2023-04-09T21:51:36.870Z,15.55
2023-04-09T21:54:05.867Z,16.67
2023-04-09T21:56:35.302Z,14.95
2023-04-09T21:59:03.776Z,15.90
2023-04-09T22:01:31.936Z,15.10
2023-04-09T22:04:00.131Z,15.63
2023-04-09T22:06:29.031Z,15.32
2023-04-09T22:08:58.032Z,15.32
2023-04-09T22:11:28.074Z,16.02
2023-04-09T22:13:58.104Z,16.23
2023-04-09T22:16:26.437Z,16.20
2023-04-09T22:18:54.950Z,16.95
2023-04-09T22:21:23.303Z,15.70
2023-04-09T22:23:51.296Z,16.50
2023-04-09T22:26:19.272Z,17.65
2023-04-09T22:28:46.994Z,16.08
2023-04-09T22:31:16.705Z,18.60
2023-04-09T22:33:44.453Z,19.10
2023-04-09T22:36:13.062Z,18.67
2023-04-09T22:38:40.990Z,17.80
2023-04-09T22:41:08.974Z,17.92
2023-04-09T22:43:37.194Z,19.15
2023-04-09T22:46:05.092Z,18.10
2023-04-09T22:48:40.702Z,17.70
2023-04-09T22:51:12.761Z,18.60
2023-04-09T22:53:40.659Z,19.45
2023-04-09T22:56:09.893Z,18.30
2023-04-09T22:58:37.671Z,18.95
2023-04-09T23:01:05.758Z,20.48
2023-04-09T23:03:35.320Z,21.40
2023-04-09T23:06:03.315Z,18.80
2023-04-09T23:08:31.206Z,19.17
2023-04-09T23:10:59.086Z,18.80
2023-04-09T23:13:26.816Z,18.92
2023-04-09T23:15:54.825Z,19.80
2023-04-09T23:18:23.190Z,18.80
2023-04-09T23:20:52.236Z,20.42
2023-04-09T23:23:20.396Z,18.77
2023-04-09T23:25:48.151Z,19.23
2023-04-09T23:28:16.132Z,19.65
2023-04-09T23:30:45.086Z,17.70
2023-04-09T23:33:12.825Z,19.50
2023-04-09T23:35:40.713Z,19.83
2023-04-09T23:38:10.248Z,19.05
2023-04-09T23:40:38.272Z,19.27
2023-04-09T23:43:06.239Z,19.20
2023-04-09T23:45:34.031Z,21.17
2023-04-09T23:48:02.361Z,19.70
2023-04-09T23:50:30.391Z,19.15
2023-04-09T23:53:00.054Z,19.60
2023-04-09T23:55:29.171Z,19.15
2023-04-09T23:57:56.938Z,19.77
